Time;durP1;ratioP1;P1;durP2;ratioP2;P2;SDS_P1;SDS_P2;PMS_P1;PMS_P2;Temp;Humidity;BMP_temperature;BMP_pressure;BME280_temperature;BME280_humidity;BME280_pressure;Samples;Min_cycle;Max_cycle;Signal;HPM_P1;HPM_P2
2023/10/27 00:01:04;;;;;;;1.58;0.82;;;17.20;64.00;;;;;;5129855;27;45364;-73
2023/10/27 00:03:31;;;;;;;0.70;0.70;;;17.10;63.90;;;;;;5129653;27;45391;-73
2023/10/27 00:05:59;;;;;;;0.73;0.60;;;17.20;63.90;;;;;;5129281;27;45311;-73
2023/10/27 00:08:26;;;;;;;0.60;0.57;;;17.10;63.90;;;;;;5128985;27;45233;-72
2023/10/27 00:10:53;;;;;;;0.65;0.63;;;17.10;63.90;;;;;;5129158;27;45313;-72
2023/10/27 00:13:20;;;;;;;1.30;0.80;;;17.10;63.80;;;;;;5129723;27;45314;-72
2023/10/27 00:15:47;;;;;;;1.02;0.70;;;17.10;63.90;;;;;;5129656;27;47027;-73
2023/10/27 00:18:14;;;;;;;0.70;0.60;;;17.10;63.90;;;;;;5129680;27;45279;-72
2023/10/27 00:20:40;;;;;;;1.13;0.70;;;17.10;63.90;;;;;;5129275;27;45203;-73
2023/10/27 00:23:09;;;;;;;0.43;0.43;;;17.10;63.90;;;;;;5129327;27;45276;-72
2023/10/27 00:25:36;;;;;;;0.60;0.60;;;17.10;63.90;;;;;;5129056;27;45257;-73
2023/10/27 00:28:03;;;;;;;0.68;0.68;;;17.10;63.80;;;;;;5128839;27;45261;-73
2023/10/27 00:30:29;;;;;;;1.50;0.50;;;17.10;63.80;;;;;;5129478;27;45284;-73
2023/10/27 00:32:56;;;;;;;1.10;0.63;;;17.10;64.60;;;;;;5128886;27;45458;-73
2023/10/27 00:35:23;;;;;;;0.40;0.40;;;17.10;63.90;;;;;;5129951;27;46522;-72
2023/10/27 00:37:50;;;;;;;0.60;0.60;;;17.10;63.80;;;;;;5149574;27;45219;-73
2023/10/27 00:40:18;;;;;;;0.45;0.45;;;17.10;63.80;;;;;;5149823;27;45208;-73
2023/10/27 00:42:45;;;;;;;0.73;0.65;;;17.10;63.80;;;;;;5149580;27;45524;-73
2023/10/27 00:45:12;;;;;;;1.02;0.70;;;17.10;63.90;;;;;;5149448;27;46383;-73
2023/10/27 00:47:39;;;;;;;1.05;0.57;;;17.10;63.90;;;;;;5149467;27;45342;-72
2023/10/27 00:50:06;;;;;;;0.85;0.55;;;17.10;63.80;;;;;;5149593;27;45286;-73
2023/10/27 00:52:33;;;;;;;0.65;0.65;;;17.00;63.70;;;;;;5130803;27;45232;-72
2023/10/27 00:55:00;;;;;;;0.93;0.70;;;17.00;63.70;;;;;;5128356;27;45709;-73
2023/10/27 00:57:28;;;;;;;0.90;0.63;;;17.10;63.70;;;;;;5128733;27;45336;-73
2023/10/27 00:59:55;;;;;;;0.90;0.52;;;17.10;64.40;;;;;;5128355;27;45278;-73
2023/10/27 01:02:22;;;;;;;1.15;0.63;;;17.00;63.60;;;;;;5128533;27;45244;-72
2023/10/27 01:04:49;;;;;;;0.60;0.60;;;17.00;63.70;;;;;;5128210;27;46550;-72
2023/10/27 01:07:16;;;;;;;0.50;0.50;;;17.00;63.60;;;;;;5128609;27;45597;-72
2023/10/27 01:09:43;;;;;;;0.88;0.60;;;17.00;63.60;;;;;;5128253;27;45282;-72
2023/10/27 01:12:10;;;;;;;1.88;0.50;;;17.00;63.50;;;;;;5128413;27;45404;-72
2023/10/27 01:14:38;;;;;;;0.50;0.50;;;17.00;63.50;;;;;;5128357;27;46859;-72
2023/10/27 01:17:05;;;;;;;0.40;0.40;;;17.00;63.60;;;;;;5128576;27;45262;-72
2023/10/27 01:19:32;;;;;;;0.90;0.30;;;17.00;63.70;;;;;;5128205;27;45286;-72
2023/10/27 01:21:59;;;;;;;0.75;0.75;;;17.00;63.70;;;;;;5128205;27;45383;-72
2023/10/27 01:24:28;;;;;;;0.75;0.60;;;17.00;63.80;;;;;;5127920;27;46395;-72
2023/10/27 01:26:55;;;;;;;1.13;0.88;;;17.00;63.60;;;;;;5128065;27;45256;-72
2023/10/27 01:29:27;;;;;;;0.70;0.70;;;17.00;63.70;;;;;;5127883;27;45309;-73
2023/10/27 01:31:54;;;;;;;1.48;0.50;;;16.90;63.60;;;;;;5128459;27;45206;-72
2023/10/27 01:34:21;;;;;;;0.50;0.50;;;17.00;63.60;;;;;;5127775;27;45517;-73
2023/10/27 01:36:48;;;;;;;0.47;0.47;;;16.90;63.80;;;;;;5127533;27;45430;-72
2023/10/27 01:39:15;;;;;;;0.88;0.57;;;17.00;63.60;;;;;;5127267;27;45398;-72
2023/10/27 01:41:44;;;;;;;1.10;0.57;;;17.00;63.60;;;;;;5128132;27;45248;-72
2023/10/27 01:44:11;;;;;;;0.60;0.52;;;17.00;63.60;;;;;;5127912;27;47258;-72
2023/10/27 01:46:37;;;;;;;0.98;0.63;;;16.90;63.60;;;;;;5127910;27;45306;-72
2023/10/27 01:49:04;;;;;;;0.60;0.60;;;16.90;63.50;;;;;;5127946;27;45381;-72
2023/10/27 01:51:31;;;;;;;0.50;0.50;;;16.90;63.70;;;;;;5128154;27;45371;-72
2023/10/27 01:53:58;;;;;;;0.95;0.47;;;16.90;63.60;;;;;;5127784;27;45214;-72
2023/10/27 01:56:25;;;;;;;0.57;0.50;;;16.90;63.60;;;;;;5127814;27;45233;-72
2023/10/27 01:58:53;;;;;;;0.47;0.40;;;16.90;63.60;;;;;;5128001;27;45408;-73
2023/10/27 02:01:21;;;;;;;0.52;0.52;;;16.90;63.50;;;;;;5127865;27;45419;-73
2023/10/27 02:03:48;;;;;;;0.47;0.47;;;16.90;63.50;;;;;;5127496;27;47737;-72
2023/10/27 02:06:15;;;;;;;0.45;0.45;;;16.90;63.50;;;;;;5127588;27;45346;-72
2023/10/27 02:08:41;;;;;;;0.77;0.60;;;16.90;63.50;;;;;;5127882;27;45297;-72
2023/10/27 02:11:08;;;;;;;0.40;0.40;;;16.90;63.50;;;;;;5127702;27;45338;-72
2023/10/27 02:13:35;;;;;;;0.45;0.45;;;16.90;63.60;;;;;;5129653;27;46664;-73
2023/10/27 02:16:04;;;;;;;0.85;0.47;;;16.90;63.60;;;;;;5131446;27;45270;-73
2023/10/27 02:18:31;;;;;;;0.43;0.43;;;16.90;63.50;;;;;;5130874;27;45204;-73
2023/10/27 02:20:58;;;;;;;0.70;0.60;;;16.90;63.60;;;;;;5130590;27;45585;-73
2023/10/27 02:23:25;;;;;;;0.40;0.40;;;16.90;63.60;;;;;;5130562;27;46929;-72
2023/10/27 02:25:52;;;;;;;0.40;0.38;;;16.90;64.20;;;;;;5131007;27;45188;-72
2023/10/27 02:28:19;;;;;;;0.73;0.50;;;16.80;63.60;;;;;;5131014;27;44684;-73
2023/10/27 02:30:46;;;;;;;0.40;0.38;;;16.90;63.60;;;;;;5131194;27;45243;-73
2023/10/27 02:33:15;;;;;;;0.30;0.30;;;16.80;63.50;;;;;;5130664;27;46944;-73
2023/10/27 02:35:42;;;;;;;0.45;0.20;;;16.90;63.60;;;;;;5130717;27;45281;-72
2023/10/27 02:38:09;;;;;;;0.50;0.50;;;16.90;63.60;;;;;;5131043;27;45247;-72
2023/10/27 02:40:35;;;;;;;0.30;0.30;;;16.80;63.50;;;;;;5131119;27;45196;-72
2023/10/27 02:43:04;;;;;;;0.63;0.60;;;16.80;63.60;;;;;;5130597;27;46479;-72
2023/10/27 02:45:31;;;;;;;0.65;0.52;;;16.80;63.60;;;;;;5130579;27;45278;-72
2023/10/27 02:47:58;;;;;;;2.15;0.45;;;16.80;63.50;;;;;;5130816;27;45256;-72
2023/10/27 02:50:26;;;;;;;0.52;0.50;;;16.80;63.60;;;;;;5130700;27;45403;-72
2023/10/27 02:52:53;;;;;;;0.47;0.47;;;16.80;63.60;;;;;;5130535;27;45326;-72
2023/10/27 02:55:20;;;;;;;0.40;0.32;;;16.80;63.60;;;;;;5131755;27;45326;-72
2023/10/27 02:57:47;;;;;;;0.40;0.40;;;16.80;63.70;;;;;;5130630;27;45233;-72
2023/10/27 03:00:14;;;;;;;0.50;0.40;;;16.80;63.40;;;;;;5130798;27;45367;-72
2023/10/27 03:02:41;;;;;;;0.32;0.32;;;16.80;63.60;;;;;;5130217;27;45579;-72
2023/10/27 03:05:09;;;;;;;0.40;0.40;;;16.70;63.50;;;;;;5129914;27;45428;-72
2023/10/27 03:07:37;;;;;;;0.50;0.50;;;16.80;63.40;;;;;;5130141;27;45363;-72
2023/10/27 03:10:06;;;;;;;0.17;0.17;;;16.70;63.50;;;;;;5130530;27;45263;-72
2023/10/27 03:12:33;;;;;;;0.55;0.32;;;16.70;63.50;;;;;;5130404;27;45621;-72
2023/10/27 03:15:00;;;;;;;0.82;0.30;;;16.80;63.50;;;;;;5130179;27;45299;-72
2023/10/27 03:17:27;;;;;;;1.58;0.60;;;16.70;63.50;;;;;;5130486;27;45379;-72
2023/10/27 03:19:54;;;;;;;0.38;0.38;;;16.70;63.50;;;;;;5130432;27;45303;-72
2023/10/27 03:22:21;;;;;;;0.40;0.40;;;16.70;63.50;;;;;;5129793;27;47293;-73
2023/10/27 03:24:49;;;;;;;0.63;0.57;;;16.70;63.50;;;;;;5129263;27;45328;-71
2023/10/27 03:27:16;;;;;;;0.40;0.40;;;16.70;63.40;;;;;;5130066;27;45375;-72
2023/10/27 03:29:43;;;;;;;0.40;0.40;;;16.70;63.50;;;;;;5130263;27;45226;-72
2023/10/27 03:32:10;;;;;;;0.40;0.40;;;16.70;63.40;;;;;;5130171;27;46233;-72
2023/10/27 03:34:37;;;;;;;0.30;0.30;;;16.70;63.50;;;;;;5129705;27;45233;-72
2023/10/27 03:37:04;;;;;;;0.85;0.22;;;16.70;63.30;;;;;;5145508;27;45354;-73
2023/10/27 03:39:30;;;;;;;0.38;0.38;;;16.70;63.30;;;;;;5150880;27;45274;-72
2023/10/27 03:41:59;;;;;;;0.20;0.20;;;16.70;64.10;;;;;;5150586;27;46719;-72
2023/10/27 03:44:26;;;;;;;0.32;0.32;;;16.70;63.50;;;;;;5150635;27;45299;-72
2023/10/27 03:46:52;;;;;;;0.30;0.30;;;16.70;63.50;;;;;;5150592;27;45252;-72
2023/10/27 03:49:19;;;;;;;0.80;0.40;;;16.70;64.10;;;;;;5149858;27;45327;-71
2023/10/27 03:51:46;;;;;;;1.63;0.30;;;16.70;63.50;;;;;;5150103;27;45462;-72
2023/10/27 03:54:13;;;;;;;0.32;0.32;;;16.70;63.60;;;;;;5150472;27;45256;-71
2023/10/27 03:56:40;;;;;;;1.17;0.43;;;16.70;63.50;;;;;;5150739;27;45215;-72
2023/10/27 03:59:10;;;;;;;0.30;0.30;;;16.70;63.50;;;;;;5150618;27;45193;-72
2023/10/27 04:01:37;;;;;;;0.20;0.20;;;16.60;63.60;;;;;;5150216;27;46557;-72
2023/10/27 04:04:04;;;;;;;0.40;0.40;;;16.70;63.60;;;;;;5150257;27;45268;-72
2023/10/27 04:06:31;;;;;;;0.40;0.40;;;16.70;63.50;;;;;;5148656;27;45188;-72
2023/10/27 04:08:58;;;;;;;0.30;0.30;;;16.60;63.70;;;;;;5129608;27;45138;-72
2023/10/27 04:11:25;;;;;;;0.40;0.40;;;16.60;63.70;;;;;;5129115;27;46645;-72
2023/10/27 04:13:52;;;;;;;0.57;0.28;;;16.60;63.70;;;;;;5129129;27;45514;-72
2023/10/27 04:16:20;;;;;;;0.60;0.40;;;16.60;63.60;;;;;;5129276;27;45316;-73
2023/10/27 04:18:47;;;;;;;0.30;0.30;;;16.60;63.70;;;;;;5129611;27;45537;-72
2023/10/27 04:21:14;;;;;;;0.20;0.20;;;16.60;63.60;;;;;;5129004;27;45234;-72
2023/10/27 04:23:41;;;;;;;0.45;0.45;;;16.60;63.60;;;;;;5129000;27;45311;-72
2023/10/27 04:26:07;;;;;;;0.30;0.30;;;16.60;63.70;;;;;;5129367;27;45349;-73
2023/10/27 04:28:34;;;;;;;0.40;0.40;;;16.60;63.70;;;;;;5129494;27;45586;-73
2023/10/27 04:31:01;;;;;;;0.32;0.32;;;16.60;63.80;;;;;;5129105;27;46685;-72
2023/10/27 04:33:29;;;;;;;0.80;0.50;;;16.60;63.80;;;;;;5127874;27;45259;-72
2023/10/27 04:35:56;;;;;;;0.30;0.30;;;16.60;63.70;;;;;;5133739;27;45344;-72
2023/10/27 04:38:23;;;;;;;1.98;0.50;;;16.60;63.80;;;;;;5149973;27;45467;-72
2023/10/27 04:40:51;;;;;;;0.32;0.32;;;16.60;63.80;;;;;;5149532;27;45298;-72
2023/10/27 04:43:18;;;;;;;0.38;0.38;;;16.60;63.70;;;;;;5147064;27;45288;-72
2023/10/27 04:45:46;;;;;;;0.30;0.30;;;16.60;64.50;;;;;;5128815;27;45314;-72
2023/10/27 04:48:13;;;;;;;0.43;0.43;;;16.60;64.00;;;;;;5129293;27;45300;-72
2023/10/27 04:50:41;;;;;;;0.35;0.35;;;16.60;63.70;;;;;;5128542;27;46404;-72
2023/10/27 04:53:08;;;;;;;1.40;0.20;;;16.60;63.80;;;;;;5128604;27;45122;-72
2023/10/27 04:55:35;;;;;;;0.40;0.40;;;16.60;63.70;;;;;;5128825;27;45383;-73
2023/10/27 04:58:02;;;;;;;1.17;0.40;;;16.60;63.80;;;;;;5128961;27;45359;-72
2023/10/27 05:00:29;;;;;;;0.30;0.30;;;16.60;63.80;;;;;;5128419;27;45359;-72
2023/10/27 05:02:56;;;;;;;0.38;0.38;;;16.60;63.70;;;;;;5128508;27;45217;-72
2023/10/27 05:05:23;;;;;;;0.40;0.40;;;16.60;63.80;;;;;;5128461;27;45177;-72
2023/10/27 05:07:51;;;;;;;0.30;0.30;;;16.60;63.70;;;;;;5128675;27;45576;-72
2023/10/27 05:10:18;;;;;;;0.35;0.20;;;16.60;63.70;;;;;;5128331;27;45298;-72
2023/10/27 05:12:45;;;;;;;0.38;0.38;;;16.60;63.70;;;;;;5128416;27;45251;-72
2023/10/27 05:15:12;;;;;;;0.47;0.47;;;16.60;63.70;;;;;;5128398;27;45285;-72
2023/10/27 05:17:38;;;;;;;0.65;0.32;;;16.60;63.70;;;;;;5127889;27;45229;-71
2023/10/27 05:20:07;;;;;;;0.30;0.30;;;16.60;63.70;;;;;;5128031;27;45441;-72
2023/10/27 05:22:33;;;;;;;2.45;0.40;;;16.60;63.70;;;;;;5128145;27;45250;-72
2023/10/27 05:25:04;;;;;;;0.30;0.30;;;16.60;63.70;;;;;;5128095;27;45198;-72
2023/10/27 05:27:31;;;;;;;0.30;0.30;;;16.60;63.60;;;;;;5128636;27;45484;-72
2023/10/27 05:29:58;;;;;;;0.10;0.10;;;16.60;63.90;;;;;;5128074;27;45247;-72
2023/10/27 05:32:25;;;;;;;0.20;0.20;;;16.60;64.30;;;;;;5128239;27;45418;-72
2023/10/27 05:34:52;;;;;;;0.38;0.35;;;16.60;63.50;;;;;;5127932;27;45279;-73
2023/10/27 05:37:19;;;;;;;0.20;0.20;;;16.60;63.70;;;;;;5145909;27;45411;-72
2023/10/27 05:39:45;;;;;;;0.40;0.40;;;16.60;63.60;;;;;;5149135;27;45467;-73
2023/10/27 05:42:14;;;;;;;0.20;0.20;;;16.60;63.60;;;;;;5148721;27;45264;-73
2023/10/27 05:44:42;;;;;;;0.20;0.20;;;16.60;63.70;;;;;;5134490;27;45327;-72
2023/10/27 05:47:09;;;;;;;0.65;0.35;;;16.60;63.60;;;;;;5129799;27;45172;-73
2023/10/27 05:49:36;;;;;;;0.65;0.32;;;16.60;64.20;;;;;;5131248;27;45426;-73
2023/10/27 05:52:03;;;;;;;0.32;0.32;;;16.60;63.50;;;;;;5131571;27;45438;-72
2023/10/27 05:54:30;;;;;;;0.30;0.30;;;16.60;63.50;;;;;;5123513;27;45292;-73
2023/10/27 05:56:57;;;;;;;0.40;0.40;;;16.60;63.50;;;;;;5131746;27;45185;-72
2023/10/27 05:59:25;;;;;;;0.30;0.30;;;16.60;63.50;;;;;;5131327;27;46603;-72
2023/10/27 06:01:54;;;;;;;0.30;0.30;;;16.60;64.40;;;;;;5130888;27;45324;-72
2023/10/27 06:04:21;;;;;;;0.30;0.30;;;16.60;63.60;;;;;;5131219;27;45299;-72
2023/10/27 06:06:47;;;;;;;0.38;0.22;;;16.60;64.30;;;;;;5131759;27;45403;-72
2023/10/27 06:09:14;;;;;;;0.60;0.40;;;16.50;63.50;;;;;;5131433;27;45343;-73
2023/10/27 06:11:41;;;;;;;0.95;0.40;;;16.60;63.40;;;;;;5131594;27;45399;-72
2023/10/27 06:14:08;;;;;;;0.30;0.30;;;16.60;63.50;;;;;;5131515;27;45390;-72
2023/10/27 06:16:37;;;;;;;1.17;0.30;;;16.50;63.50;;;;;;5131437;27;45257;-72
2023/10/27 06:19:04;;;;;;;0.32;0.32;;;16.50;63.40;;;;;;5131287;27;46945;-72
2023/10/27 06:21:31;;;;;;;0.35;0.20;;;16.60;63.60;;;;;;5123008;27;45257;-72
2023/10/27 06:23:58;;;;;;;0.17;0.17;;;16.60;63.50;;;;;;5131107;27;45368;-72
2023/10/27 06:26:25;;;;;;;0.22;0.22;;;16.60;63.50;;;;;;5131241;27;45415;-72
2023/10/27 06:28:53;;;;;;;0.30;0.30;;;16.50;63.50;;;;;;5130781;27;45516;-72
2023/10/27 06:31:20;;;;;;;0.60;0.40;;;16.60;63.60;;;;;;5131446;27;45251;-73
2023/10/27 06:33:48;;;;;;;0.70;0.38;;;16.60;63.60;;;;;;5130797;27;45291;-72
2023/10/27 06:36:15;;;;;;;0.25;0.25;;;16.50;63.50;;;;;;5139576;27;45481;-73
2023/10/27 06:38:42;;;;;;;0.35;0.10;;;16.50;63.50;;;;;;5151615;27;45527;-73
2023/10/27 06:41:09;;;;;;;0.40;0.40;;;16.50;63.50;;;;;;5151887;27;45202;-72
2023/10/27 06:43:36;;;;;;;0.30;0.30;;;16.50;63.50;;;;;;5151786;27;45480;-72
2023/10/27 06:46:03;;;;;;;0.30;0.30;;;16.60;63.50;;;;;;5151203;27;45401;-72
2023/10/27 06:48:30;;;;;;;0.20;0.20;;;16.60;63.50;;;;;;5151400;27;45239;-72
2023/10/27 06:50:58;;;;;;;0.20;0.20;;;16.50;63.50;;;;;;5151483;27;45283;-72
2023/10/27 06:53:25;;;;;;;0.25;0.25;;;16.50;63.50;;;;;;5151703;27;45299;-72
2023/10/27 06:55:52;;;;;;;0.20;0.20;;;16.50;63.50;;;;;;5151687;27;45275;-72
2023/10/27 06:58:19;;;;;;;0.35;0.32;;;16.50;63.40;;;;;;5150726;27;46473;-72
2023/10/27 07:00:46;;;;;;;0.60;0.25;;;16.50;63.50;;;;;;5151091;27;45206;-72
2023/10/27 07:03:13;;;;;;;0.30;0.30;;;16.50;63.50;;;;;;5151624;27;45201;-74
2023/10/27 07:05:40;;;;;;;0.38;0.30;;;16.50;63.40;;;;;;5151409;27;45259;-74
2023/10/27 07:08:09;;;;;;;0.28;0.20;;;16.50;63.50;;;;;;5151037;27;45478;-74
2023/10/27 07:10:36;;;;;;;0.35;0.35;;;16.60;63.50;;;;;;5151220;27;45257;-74
2023/10/27 07:13:03;;;;;;;0.30;0.30;;;16.50;63.30;;;;;;5151458;27;45245;-74
2023/10/27 07:15:30;;;;;;;0.60;0.60;;;16.60;63.40;;;;;;5151332;27;45400;-74
2023/10/27 07:17:56;;;;;;;0.20;0.20;;;16.60;63.40;;;;;;5151291;27;46406;-74
2023/10/27 07:20:23;;;;;;;0.45;0.45;;;16.60;63.30;;;;;;5148821;27;45350;-74
2023/10/27 07:22:50;;;;;;;0.40;0.40;;;16.50;63.20;;;;;;5130340;27;45331;-74
2023/10/27 07:25:19;;;;;;;0.20;0.20;;;16.60;63.30;;;;;;5130433;27;45236;-72
2023/10/27 07:27:46;;;;;;;1.15;0.40;;;16.60;63.10;;;;;;5129744;27;45264;-72
2023/10/27 07:30:13;;;;;;;1.23;0.40;;;16.60;63.20;;;;;;5129035;27;45314;-73
2023/10/27 07:32:40;;;;;;;0.40;0.40;;;16.60;63.20;;;;;;5130669;27;45318;-74
2023/10/27 07:35:08;;;;;;;0.55;0.40;;;16.60;63.20;;;;;;5130032;27;45398;-73
2023/10/27 07:37:35;;;;;;;0.40;0.40;;;16.60;63.10;;;;;;5149859;27;45289;-73
2023/10/27 07:40:03;;;;;;;0.35;0.30;;;16.60;63.20;;;;;;5150991;27;45298;-74
2023/10/27 07:42:32;;;;;;;0.75;0.50;;;16.50;63.00;;;;;;5150748;27;45459;-73
2023/10/27 07:44:59;;;;;;;0.40;0.40;;;16.60;63.10;;;;;;5150695;27;45482;-73
2023/10/27 07:47:26;;;;;;;0.50;0.50;;;16.60;63.10;;;;;;5150419;27;46444;-74
2023/10/27 07:49:53;;;;;;;0.40;0.40;;;16.60;63.10;;;;;;5150455;27;45317;-74
2023/10/27 07:52:20;;;;;;;1.42;0.50;;;16.50;63.40;;;;;;5150854;27;45359;-73
2023/10/27 07:54:47;;;;;;;0.30;0.30;;;16.60;63.20;;;;;;5150693;27;45398;-73
2023/10/27 07:57:14;;;;;;;0.63;0.50;;;16.60;63.20;;;;;;5145311;27;46486;-74
2023/10/27 07:59:43;;;;;;;0.43;0.43;;;16.60;63.10;;;;;;5129445;27;45103;-74
2023/10/27 08:02:10;;;;;;;0.40;0.40;;;16.60;63.10;;;;;;5129578;27;45395;-74
2023/10/27 08:04:37;;;;;;;0.57;0.57;;;16.60;63.10;;;;;;5129557;27;45451;-74
2023/10/27 08:07:04;;;;;;;0.47;0.47;;;16.60;63.10;;;;;;5129102;27;48208;-74
2023/10/27 08:09:31;;;;;;;0.95;0.52;;;16.60;63.00;;;;;;5129062;27;45176;-73
2023/10/27 08:11:58;;;;;;;1.65;0.50;;;16.60;62.80;;;;;;5128752;27;45270;-73
2023/10/27 08:14:25;;;;;;;1.48;0.43;;;16.60;62.80;;;;;;5128771;27;45554;-73
2023/10/27 08:16:54;;;;;;;1.42;0.50;;;16.60;62.80;;;;;;5129286;27;46302;-73
2023/10/27 08:19:20;;;;;;;0.50;0.38;;;16.70;62.80;;;;;;5129149;27;45205;-73
2023/10/27 08:21:48;;;;;;;0.47;0.45;;;16.70;62.80;;;;;;5129269;27;45246;-74
2023/10/27 08:24:16;;;;;;;1.02;0.60;;;16.70;62.70;;;;;;5129707;27;45268;-74
2023/10/27 08:26:44;;;;;;;2.92;0.60;;;16.70;62.70;;;;;;5128900;27;46481;-74
2023/10/27 08:29:11;;;;;;;0.45;0.45;;;16.70;62.70;;;;;;5128945;27;45323;-74
2023/10/27 08:31:38;;;;;;;1.55;0.32;;;16.70;62.60;;;;;;5129222;27;45269;-73
2023/10/27 08:34:10;;;;;;;2.35;0.63;;;16.70;62.70;;;;;;5128746;27;45233;-73
2023/10/27 08:36:37;;;;;;;0.43;0.43;;;16.70;62.70;;;;;;5140915;27;45315;-74
2023/10/27 08:39:04;;;;;;;0.75;0.75;;;16.70;62.60;;;;;;5149795;27;45233;-74
2023/10/27 08:41:31;;;;;;;0.95;0.50;;;16.70;62.60;;;;;;5149972;27;45377;-73
2023/10/27 08:43:58;;;;;;;0.85;0.60;;;16.70;62.50;;;;;;5149974;27;45182;-74
2023/10/27 08:46:25;;;;;;;0.50;0.50;;;16.70;62.40;;;;;;5149592;27;45664;-73
2023/10/27 08:48:53;;;;;;;0.98;0.85;;;16.70;62.50;;;;;;5149455;27;45134;-74
2023/10/27 08:51:21;;;;;;;0.50;0.50;;;16.80;62.50;;;;;;5149973;27;45294;-73
2023/10/27 08:53:48;;;;;;;3.22;0.82;;;16.80;62.40;;;;;;5149964;27;45396;-74
2023/10/27 08:56:15;;;;;;;1.50;0.70;;;16.80;62.30;;;;;;5135570;27;45485;-74
2023/10/27 08:58:48;;;;;;;0.50;0.50;;;16.90;62.40;;;;;;5127695;27;45300;-74
2023/10/27 09:01:14;;;;;;;0.55;0.55;;;16.80;62.30;;;;;;5127199;27;45249;-74
2023/10/27 09:03:41;;;;;;;0.68;0.60;;;16.80;62.30;;;;;;5128050;27;45127;-75
2023/10/27 09:06:08;;;;;;;0.60;0.57;;;16.80;62.20;;;;;;5127963;27;46370;-74
2023/10/27 09:08:36;;;;;;;0.90;0.70;;;16.90;62.10;;;;;;5128294;27;45370;-74
2023/10/27 09:11:03;;;;;;;0.70;0.70;;;16.90;62.10;;;;;;5127649;27;45261;-74
2023/10/27 09:13:31;;;;;;;0.60;0.60;;;16.90;62.20;;;;;;5127036;27;45455;-74
2023/10/27 09:15:58;;;;;;;1.65;0.80;;;16.90;62.10;;;;;;5126542;27;46490;-75
2023/10/27 09:18:35;;;;;;;0.60;0.60;;;16.90;61.90;;;;;;5128198;27;45288;-74
2023/10/27 09:21:01;;;;;;;1.48;0.60;;;16.90;62.00;;;;;;5128265;27;45284;-74
2023/10/27 09:23:30;;;;;;;1.58;0.90;;;17.00;61.90;;;;;;5128626;27;45546;-74
2023/10/27 09:25:59;;;;;;;0.77;0.52;;;16.90;61.80;;;;;;5127704;27;45360;-74
2023/10/27 09:28:28;;;;;;;1.75;0.68;;;17.00;62.10;;;;;;5128115;27;45445;-74
2023/10/27 09:30:55;;;;;;;1.85;0.80;;;16.90;62.10;;;;;;5128255;27;45191;-74
2023/10/27 09:33:25;;;;;;;1.42;0.52;;;17.00;62.10;;;;;;5126453;27;45180;-74
2023/10/27 09:35:53;;;;;;;1.00;0.65;;;17.00;62.10;;;;;;5133441;27;45328;-75
2023/10/27 09:38:20;;;;;;;0.60;0.60;;;17.00;62.10;;;;;;5149175;27;45291;-74
2023/10/27 09:40:47;;;;;;;0.70;0.70;;;17.00;61.90;;;;;;5148967;27;45203;-75
2023/10/27 09:43:20;;;;;;;0.60;0.60;;;17.00;61.80;;;;;;5149307;27;45386;-74
2023/10/27 09:45:52;;;;;;;0.70;0.70;;;17.10;61.90;;;;;;5148595;27;47303;-74
2023/10/27 09:48:22;;;;;;;0.57;0.57;;;17.10;61.70;;;;;;5149208;27;45250;-74
2023/10/27 09:50:50;;;;;;;0.70;0.70;;;17.10;62.20;;;;;;5148957;27;45293;-74
2023/10/27 09:53:17;;;;;;;0.88;0.60;;;17.20;61.40;;;;;;5126074;27;45268;-74
2023/10/27 09:55:45;;;;;;;1.75;0.75;;;17.20;61.40;;;;;;5127783;27;45459;-74
2023/10/27 09:58:12;;;;;;;0.90;0.60;;;17.20;61.50;;;;;;5127791;27;45165;-74
2023/10/27 10:00:41;;;;;;;0.70;0.70;;;17.20;61.50;;;;;;5127918;27;45276;-74
2023/10/27 10:03:09;;;;;;;0.80;0.80;;;17.20;61.50;;;;;;5121004;27;45407;-74
2023/10/27 10:06:11;;;;;;;0.77;0.65;;;17.20;61.50;;;;;;5125346;27;45599;-75
2023/10/27 10:08:38;;;;;;;0.77;0.70;;;17.20;61.40;;;;;;5121353;27;45288;-74
2023/10/27 10:11:11;;;;;;;2.55;0.88;;;17.20;61.60;;;;;;5108003;27;45216;-75
2023/10/27 10:13:38;;;;;;;0.70;0.70;;;17.20;61.50;;;;;;5107589;27;45249;-74
2023/10/27 10:16:07;;;;;;;3.10;0.90;;;17.20;61.60;;;;;;5119697;27;45317;-75
2023/10/27 10:18:56;;;;;;;0.80;0.80;;;17.20;61.70;;;;;;5124523;27;45456;-75
2023/10/27 10:21:34;;;;;;;1.10;0.90;;;17.20;61.70;;;;;;5120655;27;45391;-75
2023/10/27 10:24:10;;;;;;;1.92;0.90;;;17.20;62.60;;;;;;5123613;27;45466;-73
2023/10/27 10:27:06;;;;;;;1.17;0.82;;;17.20;62.00;;;;;;5126580;27;45268;-73
2023/10/27 10:29:33;;;;;;;1.10;0.85;;;17.20;62.00;;;;;;5126426;27;45129;-73
2023/10/27 10:32:34;;;;;;;1.95;0.80;;;17.20;62.20;;;;;;5126784;27;45264;-74
2023/10/27 10:35:23;;;;;;;1.20;1.00;;;17.20;62.30;;;;;;5128662;27;45432;-74
2023/10/27 10:37:52;;;;;;;1.08;1.00;;;17.10;62.30;;;;;;5110254;27;47687;-74
2023/10/27 10:40:22;;;;;;;0.88;0.88;;;17.10;63.10;;;;;;5116485;27;45355;-74
2023/10/27 10:43:17;;;;;;;1.58;1.10;;;17.10;62.20;;;;;;5130016;27;45243;-74
2023/10/27 10:45:45;;;;;;;1.75;0.88;;;17.10;62.20;;;;;;5130550;27;45667;-73
2023/10/27 10:48:13;;;;;;;1.10;1.00;;;17.10;62.30;;;;;;5130431;27;45352;-74
2023/10/27 10:50:40;;;;;;;1.83;0.88;;;17.10;62.40;;;;;;5130028;27;45314;-74
2023/10/27 10:53:15;;;;;;;1.98;0.82;;;17.10;62.40;;;;;;5129403;27;45271;-71
2023/10/27 10:55:43;;;;;;;0.90;0.85;;;17.10;62.50;;;;;;5129824;27;45201;-72
2023/10/27 10:58:10;;;;;;;2.30;0.80;;;17.00;62.40;;;;;;5128696;27;45485;-73
2023/10/27 11:00:37;;;;;;;1.83;0.90;;;17.00;62.40;;;;;;5128785;27;45537;-74
2023/10/27 11:03:08;;;;;;;1.65;0.82;;;17.00;62.30;;;;;;5129999;27;45452;-75
2023/10/27 11:05:36;;;;;;;0.95;0.93;;;17.00;62.20;;;;;;5129889;27;45648;-74
2023/10/27 11:08:04;;;;;;;2.47;1.05;;;17.00;62.40;;;;;;5128830;27;45291;-76
2023/10/27 11:10:32;;;;;;;1.48;0.95;;;17.10;62.50;;;;;;5128350;27;45183;-76
2023/10/27 11:13:03;;;;;;;1.30;1.02;;;17.10;62.40;;;;;;5129290;27;45256;-77
2023/10/27 11:15:48;;;;;;;1.58;0.95;;;17.10;62.40;;;;;;5121457;27;45593;-74
2023/10/27 11:18:15;;;;;;;1.73;1.10;;;17.20;62.30;;;;;;5117640;27;46452;-73
2023/10/27 11:20:44;;;;;;;1.38;1.08;;;17.20;62.10;;;;;;5117915;27;45251;-73
2023/10/27 11:23:11;;;;;;;3.40;1.15;;;17.30;62.20;;;;;;5128402;27;45436;-75
2023/10/27 11:25:39;;;;;;;2.90;1.05;;;17.30;62.10;;;;;;5125795;27;45227;-74
2023/10/27 11:28:22;;;;;;;1.80;1.10;;;17.40;62.00;;;;;;5128784;27;46839;-74
2023/10/27 11:31:01;;;;;;;1.33;0.95;;;17.60;61.50;;;;;;5129468;27;45405;-75
2023/10/27 11:33:29;;;;;;;1.40;1.20;;;17.60;61.50;;;;;;5128962;27;45196;-75
2023/10/27 11:35:58;;;;;;;1.33;1.20;;;17.50;61.60;;;;;;5125213;27;45575;-74
2023/10/27 11:38:32;;;;;;;1.42;1.10;;;17.50;61.70;;;;;;5109128;27;45279;-75
2023/10/27 11:41:11;;;;;;;1.73;0.93;;;17.50;61.70;;;;;;5116727;27;45406;-75
2023/10/27 11:43:38;;;;;;;2.90;1.30;;;17.50;61.90;;;;;;5128613;27;45216;-76
2023/10/27 11:46:12;;;;;;;1.98;1.27;;;17.40;62.70;;;;;;5128443;27;45442;-75
2023/10/27 11:48:39;;;;;;;1.25;1.15;;;17.40;61.90;;;;;;5128409;27;46693;-76
2023/10/27 11:51:07;;;;;;;1.13;1.02;;;17.40;62.10;;;;;;5129267;27;45313;-74
2023/10/27 11:53:34;;;;;;;2.20;1.13;;;17.40;62.30;;;;;;5128656;27;45346;-74
2023/10/27 11:56:03;;;;;;;3.63;1.40;;;17.30;62.90;;;;;;5128742;27;45623;-74
2023/10/27 11:58:30;;;;;;;4.25;1.50;;;17.30;62.30;;;;;;5123946;27;45615;-74
2023/10/27 12:00:57;;;;;;;3.13;1.25;;;17.30;62.70;;;;;;5127197;27;45417;-74
2023/10/27 12:03:26;;;;;;;6.80;2.20;;;17.30;62.90;;;;;;5128435;27;45372;-74
2023/10/27 12:05:54;;;;;;;4.32;1.23;;;17.40;62.80;;;;;;5125962;27;45628;-75
2023/10/27 12:08:22;;;;;;;4.50;1.50;;;17.40;62.80;;;;;;5128802;27;46361;-75
2023/10/27 12:10:52;;;;;;;3.35;1.85;;;17.40;62.70;;;;;;5128051;27;45249;-75
2023/10/27 12:13:20;;;;;;;3.55;1.27;;;17.40;62.70;;;;;;5128580;27;45275;-74
2023/10/27 12:15:47;;;;;;;8.02;1.30;;;17.40;62.70;;;;;;5128806;27;45529;-73
2023/10/27 12:18:14;;;;;;;2.67;1.50;;;17.40;62.70;;;;;;5128708;27;45450;-73
2023/10/27 12:20:42;;;;;;;3.65;1.10;;;17.40;62.70;;;;;;5118121;27;45223;-74
2023/10/27 12:23:08;;;;;;;6.43;1.48;;;17.50;63.10;;;;;;5120800;27;45379;-71
2023/10/27 12:25:37;;;;;;;4.05;1.40;;;17.50;63.50;;;;;;5107660;27;45388;-74
2023/10/27 12:28:06;;;;;;;3.10;1.42;;;17.50;63.70;;;;;;5108260;27;46349;-78
2023/10/27 12:30:33;;;;;;;3.17;1.38;;;17.50;63.50;;;;;;5108322;27;45234;-73
2023/10/27 12:33:03;;;;;;;1.98;1.27;;;17.60;63.80;;;;;;5124708;27;45311;-74
2023/10/27 12:35:30;;;;;;;3.92;1.33;;;17.70;63.70;;;;;;5123486;27;45399;-69
2023/10/27 12:37:57;;;;;;;6.35;1.63;;;17.80;63.40;;;;;;5114262;27;46393;-69
2023/10/27 12:40:24;;;;;;;4.30;1.35;;;18.10;63.30;;;;;;5128763;27;45237;-70
2023/10/27 12:42:53;;;;;;;6.63;1.55;;;18.30;62.70;;;;;;5126169;27;45323;-72
2023/10/27 12:45:20;;;;;;;4.25;1.65;;;18.40;62.10;;;;;;5128484;27;45285;-72
2023/10/27 12:47:48;;;;;;;9.27;1.83;;;18.50;61.70;;;;;;5127784;27;45240;-71
2023/10/27 12:50:14;;;;;;;3.85;1.60;;;18.60;61.50;;;;;;5126979;27;45319;-72
2023/10/27 12:52:42;;;;;;;3.85;1.70;;;18.70;61.70;;;;;;5128064;27;45378;-70